Decoded Metar for KLHQ (LANCASTER in OH, USA) (IATA:LHQ) | Meteo·Mobile Aviation Weather
aviador You're here:

KLHQ Decoded Metar

LANCASTER in OH, USA
Report Time2019-01-16 17:53:00
UTC Time2019-01-16 18:29:01
Flight Rules mvfr MVFR
Wind260° at 06 kt
W.Decomp.*RWY 28: 5.8 kt HW 1.5 kt LCW
W.Rank260° ranks 3
Current wind is below 260° avg. (8.1)
Visibility9999 m
Phenomena:N/A
Clouds:Few 011 Hf
Broken 026 Hf
Overcast 036 Hf
Expected CloudBase > 1,200 ft AGL from Temp-Dew spread
Ceiling2,600 ft
Temp01°C (ISA -12)
Dew Point-2°C (81% RH)
AAT-3.4°C
QNH1023 hPa
Density Alt-909 ft
Elevation853 ft
Report Wrong Elevation
Raw Report
KLHQ 161753Z AUTO 26006KT 10SM FEW011 BKN026 OVC036 01/M02 A3022
RMK AO2 SLP243 60000 T00061022 10006 21006 58001=

Extra information for KLHQ:More info

Metar Taf Metar & Taf Last 4 Metars F.Rules Stats Wind Profile Meteogram Temp Stats Airport Information Weather charts Add Link Nearby VenuesMetar ALERT Operation Metar Decoded Social comments

AIRNAV info for KLHQ